createdAt,value
2022-08-07T00:00:25.405Z,14.85
2022-08-07T00:02:53.697Z,13.55
2022-08-07T00:05:20.768Z,15.98
2022-08-07T00:07:59.730Z,17.90
2022-08-07T00:10:31.083Z,20.60
2022-08-07T00:13:23.562Z,21.08
2022-08-07T00:15:51.844Z,20.33
2022-08-07T00:18:24.351Z,22.23
2022-08-07T00:20:54.682Z,26.85
2022-08-07T00:23:21.660Z,24.30
2022-08-07T00:25:58.922Z,28.75
2022-08-07T00:28:33.673Z,21.63
2022-08-07T00:31:12.438Z,22.60
2022-08-07T00:33:40.345Z,23.08
2022-08-07T00:36:08.472Z,21.52
2022-08-07T00:38:36.744Z,22.05
2022-08-07T00:41:09.910Z,21.52
2022-08-07T00:44:01.181Z,19.52
2022-08-07T00:46:30.005Z,20.08
2022-08-07T00:49:02.178Z,17.95
2022-08-07T00:51:57.403Z,14.85
2022-08-07T00:54:16.731Z,17.95
2022-08-07T00:56:49.555Z,15.00
2022-08-07T00:59:17.334Z,26.30
2022-08-07T01:01:48.399Z,14.65
2022-08-07T01:04:21.682Z,16.88
2022-08-07T01:06:51.464Z,15.95
2022-08-07T01:10:03.860Z,18.30
2022-08-07T01:12:29.057Z,13.88
2022-08-07T01:14:57.130Z,14.77
2022-08-07T01:17:30.164Z,14.57
2022-08-07T01:20:08.181Z,14.65
2022-08-07T01:22:37.855Z,16.15
2022-08-07T01:25:53.997Z,13.98
2022-08-07T01:28:03.621Z,17.90
2022-08-07T01:30:32.290Z,15.30
2022-08-07T01:32:59.319Z,14.13
2022-08-07T01:35:36.871Z,14.95
2022-08-07T01:38:24.846Z,15.50
2022-08-07T01:41:02.598Z,20.13
2022-08-07T01:43:38.048Z,14.05
2022-08-07T01:46:08.386Z,15.05
2022-08-07T01:48:46.577Z,13.38
2022-08-07T01:52:02.706Z,14.98
2022-08-07T01:54:19.267Z,14.15
2022-08-07T01:57:08.279Z,12.52
2022-08-07T01:59:43.762Z,13.50
2022-08-07T02:03:12.355Z,12.63
2022-08-07T02:05:43.394Z,10.25
2022-08-07T02:08:20.587Z,20.48
2022-08-07T02:10:55.275Z,13.68
2022-08-07T02:13:57.218Z,12.48
2022-08-07T02:16:19.911Z,13.77
2022-08-07T02:18:55.964Z,13.95
2022-08-07T02:21:24.930Z,11.82
2022-08-07T02:23:53.257Z,12.73
2022-08-07T02:26:33.885Z,15.20
2022-08-07T02:29:07.529Z,13.80
2022-08-07T02:31:41.926Z,12.52
2022-08-07T02:34:11.181Z,13.48
2022-08-07T02:36:49.488Z,13.30
2022-08-07T02:39:42.431Z,15.68
2022-08-07T02:42:10.334Z,12.68
2022-08-07T02:44:48.130Z,13.13
2022-08-07T02:47:19.747Z,15.15
2022-08-07T02:49:58.701Z,15.65
2022-08-07T02:52:34.361Z,14.07
2022-08-07T02:55:41.855Z,14.73
2022-08-07T02:58:10.398Z,13.60
2022-08-07T03:00:41.631Z,15.70
2022-08-07T03:03:21.159Z,14.43
2022-08-07T03:05:53.836Z,13.65
2022-08-07T03:08:26.820Z,15.63
2022-08-07T03:10:58.152Z,14.52
2022-08-07T03:13:38.746Z,12.20
2022-08-07T03:16:16.779Z,13.02
2022-08-07T03:18:50.178Z,13.25
2022-08-07T03:21:19.078Z,12.63
2022-08-07T03:24:18.452Z,14.38
2022-08-07T03:26:36.007Z,13.20
2022-08-07T03:29:15.184Z,13.32
2022-08-07T03:31:49.839Z,14.20
2022-08-07T03:34:22.134Z,13.95
2022-08-07T03:36:53.638Z,14.23
2022-08-07T03:39:59.005Z,13.32
2022-08-07T03:42:11.825Z,13.65
2022-08-07T03:44:39.960Z,13.00
2022-08-07T03:47:13.044Z,11.75
2022-08-07T03:49:40.558Z,14.57
2022-08-07T03:52:22.373Z,14.98
2022-08-07T03:54:55.275Z,16.65
2022-08-07T03:58:33.677Z,12.90
2022-08-07T04:00:14.810Z,12.43
2022-08-07T04:02:49.366Z,10.55
2022-08-07T04:05:39.709Z,12.95
2022-08-07T04:08:15.989Z,12.85
2022-08-07T04:10:54.260Z,14.73
2022-08-07T04:14:10.970Z,12.25
2022-08-07T04:16:31.472Z,11.75
2022-08-07T04:19:04.307Z,13.80
2022-08-07T04:21:39.652Z,13.75
2022-08-07T04:24:34.308Z,13.15
2022-08-07T04:27:25.442Z,11.65
2022-08-07T04:30:02.261Z,12.05
2022-08-07T04:32:44.942Z,12.27
2022-08-07T04:35:16.346Z,11.77
2022-08-07T04:38:04.655Z,11.65
2022-08-07T04:40:32.705Z,10.82
2022-08-07T04:43:01.964Z,11.75
2022-08-07T04:46:00.931Z,11.95
2022-08-07T04:48:59.326Z,13.80
2022-08-07T04:51:32.629Z,11.52
2022-08-07T04:54:22.656Z,11.35
2022-08-07T04:58:10.520Z,12.07
2022-08-07T05:00:11.430Z,12.18
2022-08-07T05:03:31.163Z,12.07
2022-08-07T05:06:19.619Z,10.05
2022-08-07T05:09:02.183Z,14.40
2022-08-07T05:11:57.578Z,15.07
2022-08-07T05:14:54.958Z,15.40
2022-08-07T05:17:52.577Z,16.20
2022-08-07T05:20:24.948Z,16.75
2022-08-07T05:22:57.975Z,16.75
2022-08-07T05:25:54.477Z,15.38
2022-08-07T05:28:22.656Z,16.23
2022-08-07T05:30:56.788Z,16.63
2022-08-07T05:33:28.313Z,19.52
2022-08-07T05:35:56.171Z,17.55
2022-08-07T05:39:00.263Z,19.80
2022-08-07T05:41:15.871Z,16.63
2022-08-07T05:44:08.173Z,16.92
2022-08-07T05:46:38.107Z,21.73
2022-08-07T05:49:11.790Z,19.70
2022-08-07T05:51:43.499Z,22.17
2022-08-07T05:54:31.355Z,17.08
2022-08-07T05:57:04.453Z,16.35
2022-08-07T05:59:46.614Z,20.48
2022-08-07T06:02:29.085Z,17.80
2022-08-07T06:05:03.470Z,21.13
2022-08-07T06:08:13.569Z,15.90
2022-08-07T06:10:18.926Z,14.82
2022-08-07T06:12:48.540Z,23.85
2022-08-07T06:15:19.993Z,18.80
2022-08-07T06:17:53.480Z,16.25
2022-08-07T06:20:50.057Z,19.00
2022-08-07T06:23:46.019Z,18.48
2022-08-07T06:25:59.807Z,14.90
2022-08-07T06:28:27.198Z,16.15
2022-08-07T06:30:56.544Z,15.52
2022-08-07T06:33:26.605Z,17.92
2022-08-07T06:36:11.821Z,20.27
2022-08-07T06:38:51.388Z,17.88
2022-08-07T06:42:02.477Z,19.10
2022-08-07T06:44:46.006Z,18.23
2022-08-07T06:47:18.819Z,14.23
2022-08-07T06:49:52.172Z,17.80
2022-08-07T06:52:35.590Z,16.30
2022-08-07T06:55:31.489Z,12.85
2022-08-07T06:58:04.252Z,14.40
2022-08-07T07:00:38.141Z,14.35
2022-08-07T07:03:08.732Z,8.68
2022-08-07T07:06:02.385Z,13.32
2022-08-07T07:08:27.283Z,11.13
2022-08-07T07:10:56.889Z,11.05
2022-08-07T07:13:56.721Z,12.05
2022-08-07T07:16:33.829Z,10.98
2022-08-07T07:19:54.463Z,8.80
2022-08-07T07:22:05.071Z,7.25
2022-08-07T07:24:43.127Z,11.38
2022-08-07T07:27:35.592Z,8.05
2022-08-07T07:30:20.800Z,10.88
2022-08-07T07:33:01.404Z,8.93
2022-08-07T07:35:33.494Z,9.30
2022-08-07T07:38:04.862Z,11.57
2022-08-07T07:40:34.421Z,9.45
2022-08-07T07:43:15.476Z,9.73
2022-08-07T07:46:38.264Z,9.60
2022-08-07T07:48:36.506Z,11.23
2022-08-07T07:51:08.116Z,6.82
2022-08-07T07:53:50.404Z,7.75
2022-08-07T07:56:30.435Z,8.07
2022-08-07T07:59:00.460Z,9.57
2022-08-07T08:02:03.732Z,6.70
2022-08-07T08:04:18.380Z,11.82
2022-08-07T08:06:52.273Z,12.68
2022-08-07T08:09:23.486Z,10.40
2022-08-07T08:12:02.886Z,12.07
2022-08-07T08:14:36.379Z,9.52
2022-08-07T08:17:41.194Z,11.35
2022-08-07T08:20:17.643Z,13.38
2022-08-07T08:23:08.181Z,11.10
2022-08-07T08:25:56.569Z,9.25
2022-08-07T08:28:37.901Z,10.52
2022-08-07T08:31:15.626Z,7.00
2022-08-07T08:33:49.750Z,6.90
2022-08-07T08:36:29.641Z,6.93
2022-08-07T08:38:59.860Z,7.03
2022-08-07T08:41:57.919Z,6.97
2022-08-07T08:44:44.262Z,5.72
2022-08-07T08:47:34.389Z,8.65
2022-08-07T08:50:35.285Z,6.50
2022-08-07T08:53:19.693Z,8.43
2022-08-07T08:56:01.295Z,7.10
2022-08-07T08:58:59.754Z,6.30
2022-08-07T09:01:58.457Z,5.45
2022-08-07T09:04:44.523Z,7.45
2022-08-07T09:07:23.224Z,7.60
2022-08-07T09:10:14.461Z,5.78
2022-08-07T09:12:53.354Z,6.43
2022-08-07T09:16:25.229Z,7.85
2022-08-07T09:19:03.462Z,4.47
2022-08-07T09:22:10.294Z,6.05
2022-08-07T09:24:59.417Z,6.10
2022-08-07T09:27:59.462Z,7.63
2022-08-07T09:30:35.014Z,5.97
2022-08-07T09:33:16.558Z,6.95
2022-08-07T09:36:11.743Z,7.95
2022-08-07T09:38:57.750Z,9.90
2022-08-07T09:42:03.023Z,6.65
2022-08-07T09:47:26.311Z,5.93
2022-08-07T09:48:08.810Z,6.68
2022-08-07T09:50:55.864Z,6.10
2022-08-07T09:53:26.039Z,9.15
2022-08-07T09:56:46.991Z,7.85
2022-08-07T09:59:44.670Z,8.77
2022-08-07T10:02:24.563Z,8.65
2022-08-07T10:05:29.721Z,7.57
2022-08-07T10:08:35.197Z,7.47
2022-08-07T10:12:00.135Z,7.15
2022-08-07T10:14:30.483Z,6.18
2022-08-07T10:17:22.646Z,7.25
2022-08-07T10:20:31.679Z,7.50
2022-08-07T10:23:17.073Z,6.60
2022-08-07T10:26:33.344Z,5.00
2022-08-07T10:29:34.950Z,6.55
2022-08-07T10:32:36.812Z,6.47
2022-08-07T10:35:55.699Z,7.20
2022-08-07T10:38:35.955Z,5.90
2022-08-07T10:41:46.605Z,6.75
2022-08-07T10:44:33.814Z,6.43
2022-08-07T10:47:18.767Z,9.15
2022-08-07T10:50:10.762Z,7.22
2022-08-07T10:52:58.834Z,5.93
2022-08-07T10:56:02.154Z,3.35
2022-08-07T10:58:59.433Z,5.88
2022-08-07T11:01:51.007Z,5.03
2022-08-07T11:05:00.080Z,4.35
2022-08-07T11:08:02.682Z,3.95
2022-08-07T11:10:52.294Z,4.47
2022-08-07T11:14:42.016Z,4.68
2022-08-07T11:17:07.389Z,3.20
2022-08-07T11:20:03.648Z,3.80
2022-08-07T11:22:49.006Z,3.50
2022-08-07T11:25:25.663Z,5.35
2022-08-07T11:28:04.287Z,4.07
2022-08-07T11:30:42.594Z,3.67
2022-08-07T11:33:59.393Z,2.88
2022-08-07T11:36:16.612Z,3.40
2022-08-07T11:39:19.721Z,3.15
2022-08-07T11:42:03.327Z,4.65
2022-08-07T11:44:51.962Z,4.65
2022-08-07T11:47:56.311Z,4.68
2022-08-07T11:50:44.238Z,4.47
2022-08-07T11:54:11.476Z,2.75
2022-08-07T11:56:59.232Z,3.90
2022-08-07T12:00:10.084Z,3.75
2022-08-07T12:02:55.583Z,4.50
2022-08-07T12:06:01.300Z,3.75
2022-08-07T12:08:52.627Z,3.80
2022-08-07T12:11:32.427Z,4.00
2022-08-07T12:14:08.509Z,4.00
2022-08-07T12:16:42.434Z,4.40
2022-08-07T12:20:03.311Z,5.10
2022-08-07T12:22:55.883Z,4.75
2022-08-07T12:26:23.344Z,5.18
2022-08-07T12:29:15.767Z,5.65
2022-08-07T12:32:03.813Z,3.95
2022-08-07T12:34:34.479Z,3.60
2022-08-07T12:37:08.768Z,3.20
2022-08-07T12:39:50.949Z,3.22
2022-08-07T12:42:27.189Z,3.00
2022-08-07T12:44:57.782Z,2.83
2022-08-07T12:48:13.222Z,3.92
2022-08-07T12:51:18.819Z,4.00
2022-08-07T12:54:02.714Z,4.28
2022-08-07T12:56:51.474Z,5.07
2022-08-07T12:59:30.497Z,4.18
2022-08-07T13:02:33.158Z,3.25
2022-08-07T13:06:04.755Z,5.22
2022-08-07T13:08:43.671Z,3.15
2022-08-07T13:12:02.742Z,4.25
2022-08-07T13:14:58.953Z,5.43
2022-08-07T13:17:42.718Z,5.35
2022-08-07T13:20:46.516Z,4.95
2022-08-07T13:24:01.751Z,5.30
2022-08-07T13:26:46.430Z,7.28
2022-08-07T13:29:52.302Z,4.90
2022-08-07T13:32:32.101Z,4.57
2022-08-07T13:35:08.410Z,3.33
2022-08-07T13:37:59.188Z,5.50
2022-08-07T13:40:46.843Z,5.32
2022-08-07T13:43:17.218Z,4.95
2022-08-07T13:46:11.286Z,4.60
2022-08-07T13:48:51.884Z,4.28
2022-08-07T13:51:28.180Z,3.80
2022-08-07T13:54:22.634Z,4.15
2022-08-07T13:56:59.458Z,4.80
2022-08-07T13:59:33.166Z,6.25
2022-08-07T14:02:14.996Z,5.15
2022-08-07T14:04:54.499Z,7.03
2022-08-07T14:07:24.402Z,5.13
2022-08-07T14:10:17.420Z,6.57
2022-08-07T14:12:58.515Z,4.35
2022-08-07T14:15:28.319Z,5.47
2022-08-07T14:18:24.238Z,4.85
2022-08-07T14:21:08.170Z,4.30
2022-08-07T14:24:01.855Z,6.57
2022-08-07T14:26:39.191Z,5.93
2022-08-07T14:30:06.395Z,4.82
2022-08-07T14:32:10.159Z,5.60
2022-08-07T14:34:46.200Z,5.03
2022-08-07T14:37:16.836Z,4.57
2022-08-07T14:40:16.469Z,7.30
2022-08-07T14:42:35.605Z,5.45
2022-08-07T14:45:25.483Z,4.82
2022-08-07T14:51:06.078Z,6.65
2022-08-07T14:56:33.199Z,4.63
2022-08-07T15:01:58.679Z,4.05
2022-08-07T15:04:26.139Z,3.10
2022-08-07T15:06:56.975Z,5.18
2022-08-07T15:09:57.608Z,4.88
2022-08-07T15:12:26.173Z,4.60
2022-08-07T15:15:09.117Z,4.63
2022-08-07T15:18:02.700Z,3.28
2022-08-07T15:20:38.568Z,7.20
2022-08-07T15:25:15.128Z,7.13
2022-08-07T15:31:57.647Z,4.40
2022-08-07T15:34:33.644Z,4.65
2022-08-07T15:37:06.854Z,4.72
2022-08-07T15:39:56.619Z,6.28
2022-08-07T15:42:47.845Z,5.38
2022-08-07T15:45:20.818Z,6.18
2022-08-07T15:48:13.000Z,4.80
2022-08-07T15:51:08.091Z,4.05
2022-08-07T15:53:52.183Z,4.97
2022-08-07T15:56:24.661Z,6.05
2022-08-07T15:58:59.350Z,7.38
2022-08-07T16:01:38.443Z,4.43
2022-08-07T16:04:15.300Z,6.55
2022-08-07T16:06:59.236Z,5.32
2022-08-07T16:09:42.211Z,6.75
2022-08-07T16:12:39.084Z,6.68
2022-08-07T16:15:55.209Z,7.65
2022-08-07T16:18:43.471Z,6.13
2022-08-07T16:22:19.244Z,5.82
2022-08-07T16:25:23.063Z,5.03
2022-08-07T16:29:18.359Z,4.43
2022-08-07T16:31:57.205Z,7.80
2022-08-07T16:34:45.356Z,5.80
2022-08-07T16:38:04.939Z,4.03
2022-08-07T16:40:34.304Z,4.63
2022-08-07T16:43:19.117Z,4.27
2022-08-07T16:50:26.593Z,8.07
2022-08-07T16:53:55.637Z,5.53
2022-08-07T16:56:25.871Z,6.53
2022-08-07T16:59:10.661Z,4.93
2022-08-07T17:01:56.669Z,4.07
2022-08-07T17:04:32.516Z,5.18
2022-08-07T17:07:08.072Z,3.78
2022-08-07T17:10:08.153Z,3.35
2022-08-07T17:12:47.491Z,4.45
2022-08-07T17:15:15.689Z,5.75
2022-08-07T17:17:48.535Z,5.05
2022-08-07T17:20:41.265Z,6.70
2022-08-07T17:23:31.990Z,4.07
2022-08-07T17:26:24.147Z,6.72
2022-08-07T17:30:14.721Z,6.45
2022-08-07T17:32:31.155Z,6.35
2022-08-07T17:35:50.002Z,10.27
2022-08-07T17:38:33.414Z,3.13
2022-08-07T17:42:02.296Z,3.65
2022-08-07T17:44:33.873Z,3.72
2022-08-07T17:47:16.922Z,5.68
2022-08-07T17:49:59.155Z,4.60
2022-08-07T17:52:31.427Z,5.18
2022-08-07T17:55:09.244Z,5.43
2022-08-07T17:58:13.547Z,4.65
2022-08-07T18:00:59.097Z,3.70
2022-08-07T18:04:04.537Z,4.38
2022-08-07T18:06:43.565Z,5.68
2022-08-07T18:09:18.844Z,5.50
2022-08-07T18:12:28.591Z,4.10
2022-08-07T18:15:08.636Z,3.63
2022-08-07T18:18:46.422Z,4.45
2022-08-07T18:21:06.522Z,4.40
2022-08-07T18:23:58.316Z,6.75
2022-08-07T18:26:38.566Z,4.88
2022-08-07T18:30:04.208Z,5.45
2022-08-07T18:32:39.240Z,3.97
2022-08-07T18:35:21.733Z,6.20
2022-08-07T18:38:57.602Z,6.20
2022-08-07T18:41:16.744Z,4.78
2022-08-07T18:43:48.965Z,6.00
2022-08-07T18:47:08.568Z,7.60
2022-08-07T18:50:30.760Z,4.20
2022-08-07T18:52:53.271Z,5.63
2022-08-07T18:55:57.325Z,7.28
2022-08-07T18:59:01.626Z,5.43
2022-08-07T19:02:18.291Z,6.60
2022-08-07T19:04:56.228Z,5.65
2022-08-07T19:07:59.296Z,4.10
2022-08-07T19:10:49.429Z,6.47
2022-08-07T19:13:37.761Z,4.57
2022-08-07T19:17:01.473Z,7.03
2022-08-07T19:19:41.169Z,8.07
2022-08-07T19:22:18.433Z,5.05
2022-08-07T19:24:58.506Z,5.85
2022-08-07T19:28:58.533Z,4.93
2022-08-07T19:31:05.817Z,7.07
2022-08-07T19:33:15.606Z,9.57
2022-08-07T19:35:53.599Z,6.22
2022-08-07T19:38:21.541Z,8.65
2022-08-07T19:40:51.843Z,7.50
2022-08-07T19:43:49.060Z,4.78
2022-08-07T19:46:10.927Z,6.30
2022-08-07T19:48:42.133Z,6.35
2022-08-07T19:51:19.366Z,7.68
2022-08-07T19:54:35.609Z,6.38
2022-08-07T19:57:52.006Z,5.97
2022-08-07T19:59:39.917Z,5.55
2022-08-07T20:02:19.739Z,7.18
2022-08-07T20:04:57.017Z,6.07
2022-08-07T20:07:47.135Z,7.20
2022-08-07T20:10:36.615Z,6.32
2022-08-07T20:13:22.687Z,5.93
2022-08-07T20:15:52.220Z,6.72
2022-08-07T20:18:32.780Z,6.78
2022-08-07T20:21:02.164Z,6.55
2022-08-07T20:23:41.069Z,6.90
2022-08-07T20:26:10.842Z,6.85
2022-08-07T20:28:40.029Z,6.80
2022-08-07T20:31:21.892Z,9.73
2022-08-07T20:33:56.463Z,5.43
2022-08-07T20:36:26.553Z,10.98
2022-08-07T20:39:00.810Z,5.07
2022-08-07T20:41:41.045Z,7.53
2022-08-07T20:44:12.465Z,9.20
2022-08-07T20:46:44.278Z,7.03
2022-08-07T20:49:57.799Z,7.35
2022-08-07T20:52:09.360Z,8.68
2022-08-07T20:54:53.292Z,8.45
2022-08-07T20:57:24.877Z,6.72
2022-08-07T21:00:06.971Z,9.10
2022-08-07T21:03:00.613Z,8.10
2022-08-07T21:05:51.517Z,7.97
2022-08-07T21:08:39.227Z,6.18
2022-08-07T21:11:14.459Z,6.57
2022-08-07T21:14:16.057Z,8.05
2022-08-07T21:16:56.286Z,8.95
2022-08-07T21:19:51.390Z,8.32
2022-08-07T21:22:25.590Z,8.05
2022-08-07T21:25:12.140Z,6.82
2022-08-07T21:27:47.450Z,7.55
2022-08-07T21:30:17.783Z,6.55
2022-08-07T21:33:11.611Z,7.20
2022-08-07T21:36:06.034Z,5.25
2022-08-07T21:39:46.507Z,7.63
2022-08-07T21:42:37.459Z,6.22
2022-08-07T21:45:01.348Z,6.25
2022-08-07T21:48:29.092Z,6.60
2022-08-07T21:51:19.465Z,7.38
2022-08-07T21:53:54.008Z,7.07
2022-08-07T21:56:57.967Z,6.40
2022-08-07T22:00:04.603Z,7.78
2022-08-07T22:02:44.853Z,5.70
2022-08-07T22:05:45.352Z,6.40
2022-08-07T22:08:12.279Z,7.72
2022-08-07T22:10:42.414Z,7.90
2022-08-07T22:13:14.057Z,7.28
2022-08-07T22:16:42.597Z,8.70
2022-08-07T22:18:52.656Z,6.45
2022-08-07T22:21:26.093Z,8.35
2022-08-07T22:24:17.581Z,7.20
2022-08-07T22:26:56.559Z,7.93
2022-08-07T22:29:33.992Z,5.63
2022-08-07T22:32:20.724Z,7.20
2022-08-07T22:34:54.149Z,8.18
2022-08-07T22:38:04.571Z,6.95
2022-08-07T22:40:54.887Z,5.35
2022-08-07T22:43:39.152Z,6.53
2022-08-07T22:47:02.620Z,6.43
2022-08-07T22:49:51.797Z,7.13
2022-08-07T22:52:39.628Z,7.38
2022-08-07T22:55:34.162Z,7.45
2022-08-07T22:58:33.786Z,6.55
2022-08-07T23:01:49.877Z,6.80
2022-08-07T23:04:58.090Z,5.57
2022-08-07T23:08:24.364Z,8.70
2022-08-07T23:11:10.275Z,7.65
2022-08-07T23:14:10.878Z,7.03
2022-08-07T23:17:03.243Z,7.13
2022-08-07T23:20:14.746Z,6.43
2022-08-07T23:23:01.659Z,7.85
2022-08-07T23:25:37.516Z,9.18
2022-08-07T23:28:31.105Z,8.43
2022-08-07T23:32:48.642Z,7.85
2022-08-07T23:35:07.370Z,7.80
2022-08-07T23:38:10.881Z,8.52
2022-08-07T23:40:52.974Z,8.45
2022-08-07T23:43:57.341Z,9.40
2022-08-07T23:47:03.667Z,7.90
2022-08-07T23:49:50.530Z,8.48
2022-08-07T23:53:06.777Z,8.73
2022-08-07T23:55:52.271Z,7.10
2022-08-07T23:58:55.048Z,9.40
